Time;durP1;ratioP1;P1;durP2;ratioP2;P2;SDS_P1;SDS_P2;PMS_P1;PMS_P2;Temp;Humidity;BMP_temperature;BMP_pressure;BME280_temperature;BME280_humidity;BME280_pressure;Samples;Min_cycle;Max_cycle;Signal;HPM_P1;HPM_P2
2023/03/09 00:00:41;;;;;;;12.13;6.40;;;;;;;40.90;37.01;100894.78;6158384;23;20384;-81
2023/03/09 00:03:15;;;;;;;26.30;8.40;;;;;;;41.40;36.59;100905.78;6184599;23;20420;-86
2023/03/09 00:06:02;;;;;;;15.30;6.93;;;;;;;41.64;35.67;100897.00;6156795;23;20399;-86
2023/03/09 00:08:28;;;;;;;15.20;7.93;;;;;;;41.50;36.22;100899.97;6128590;23;20441;-85
2023/03/09 00:10:55;;;;;;;17.00;8.30;;;;;;;41.73;36.04;100897.72;6128297;23;20520;-85
2023/03/09 00:13:22;;;;;;;21.20;7.83;;;;;;;41.25;37.09;100892.69;6154776;23;20464;-79
2023/03/09 00:15:52;;;;;;;15.10;8.20;;;;;;;41.35;36.63;100889.66;6128711;23;20731;-80
2023/03/09 00:18:19;;;;;;;17.40;8.30;;;;;;;41.12;37.04;100893.72;6128905;23;20452;-76
2023/03/09 00:20:46;;;;;;;14.37;8.63;;;;;;;41.08;36.79;100890.88;6155034;23;20812;-76
2023/03/09 00:23:12;;;;;;;18.50;8.27;;;;;;;41.49;36.67;100894.84;6128878;23;20504;-76
2023/03/09 00:25:38;;;;;;;16.17;7.03;;;;;;;41.59;35.97;100886.28;6128513;23;20390;-76
2023/03/09 00:28:05;;;;;;;18.40;7.93;;;;;;;41.33;36.68;100879.09;6128570;23;20862;-83
2023/03/09 00:30:31;;;;;;;13.30;8.00;;;;;;;41.27;36.88;100885.03;6128340;23;20511;-85
2023/03/09 00:32:57;;;;;;;19.60;7.37;;;;;;;41.02;36.98;100884.81;6128595;23;20396;-86
2023/03/09 00:35:23;;;;;;;16.90;9.10;;;;;;;41.10;37.26;100885.91;6128466;23;20401;-88
2023/03/09 00:37:49;;;;;;;14.00;7.87;;;;;;;41.23;37.11;100878.63;6128368;23;20392;-84
2023/03/09 00:40:15;;;;;;;13.70;8.50;;;;;;;41.38;36.61;100885.47;6128716;23;20440;-83
2023/03/09 00:42:45;;;;;;;11.50;8.03;;;;;;;41.48;36.45;100876.91;6128657;23;20727;-85
2023/03/09 00:45:13;;;;;;;12.80;8.00;;;;;;;41.57;36.87;100880.38;6128302;23;20389;-83
2023/03/09 00:47:39;;;;;;;19.83;7.40;;;;;;;41.65;36.38;100886.88;6128435;23;20416;-83
2023/03/09 00:50:07;;;;;;;14.13;7.07;;;;;;;41.43;36.71;100879.81;6128143;23;20933;-84
2023/03/09 00:52:33;;;;;;;13.20;6.77;;;;;;;41.15;37.33;100880.28;6128676;23;20440;-83
2023/03/09 00:55:00;;;;;;;13.33;6.43;;;;;;;41.02;36.81;100865.78;6128218;23;20385;-82
2023/03/09 00:57:27;;;;;;;22.70;9.83;;;;;;;40.85;37.32;100865.81;6128479;23;20390;-85
2023/03/09 00:59:53;;;;;;;19.13;8.33;;;;;;;41.13;37.59;100847.16;6127996;23;20385;-85
2023/03/09 01:02:20;;;;;;;13.73;6.43;;;;;;;41.04;37.00;100862.72;6128335;23;20464;-82
2023/03/09 01:04:47;;;;;;;15.03;8.03;;;;;;;41.32;37.19;100872.06;6128316;23;20732;-76
2023/03/09 01:07:13;;;;;;;15.47;7.77;;;;;;;41.62;36.15;100869.31;6128204;23;20436;-85
2023/03/09 01:09:39;;;;;;;13.73;6.90;;;;;;;41.36;36.73;100849.59;6128197;23;20519;-86
2023/03/09 01:12:06;;;;;;;19.73;6.97;;;;;;;41.31;37.32;100853.28;6128299;23;20872;-83
2023/03/09 01:14:33;;;;;;;20.37;8.90;;;;;;;41.03;37.63;100853.78;6128436;23;20381;-83
2023/03/09 01:16:59;;;;;;;19.40;9.97;;;;;;;40.87;37.96;100838.28;6128423;23;20722;-83
2023/03/09 01:19:26;;;;;;;16.83;8.30;;;;;;;41.11;37.89;100833.06;6128323;23;20390;-84
2023/03/09 01:21:52;;;;;;;18.00;6.57;;;;;;;41.35;37.33;100829.75;6127563;23;20468;-85
2023/03/09 01:24:18;;;;;;;16.77;8.30;;;;;;;41.19;37.71;100823.25;6127822;23;20393;-85
2023/03/09 01:26:44;;;;;;;15.87;8.33;;;;;;;41.42;37.37;100821.84;6128404;23;20389;-86
2023/03/09 01:29:10;;;;;;;14.80;7.20;;;;;;;41.42;36.72;100826.50;6128096;23;20413;-82
2023/03/09 01:31:36;;;;;;;13.07;6.73;;;;;;;41.17;36.92;100826.31;6128257;23;20385;-85
2023/03/09 01:34:02;;;;;;;11.43;6.07;;;;;;;41.54;36.44;100824.66;6127985;23;20393;-84
2023/03/09 01:36:34;;;;;;;13.13;6.30;;;;;;;41.21;37.08;100815.56;6127766;23;20420;-81
2023/03/09 01:39:01;;;;;;;16.00;6.30;;;;;;;40.36;38.28;100807.44;6152580;23;20389;-85
2023/03/09 01:41:27;;;;;;;16.93;5.80;;;;;;;41.00;37.42;100799.19;6154063;23;20388;-84
2023/03/09 01:43:53;;;;;;;13.63;5.83;;;;;;;40.48;38.12;100794.00;6127952;23;20476;-84
2023/03/09 01:46:23;;;;;;;18.67;7.23;;;;;;;40.95;37.28;100794.78;6127999;23;20785;-85
2023/03/09 01:48:50;;;;;;;12.80;7.30;;;;;;;40.64;37.57;100791.50;6154339;23;20393;-80
2023/03/09 01:51:18;;;;;;;15.20;7.20;;;;;;;40.69;38.00;100775.81;6128026;23;20487;-84
2023/03/09 01:53:45;;;;;;;18.83;6.40;;;;;;;40.71;37.69;100773.59;6127896;23;20413;-80
2023/03/09 01:56:13;;;;;;;13.10;7.50;;;;;;;40.63;38.10;100768.16;6128032;23;20385;-84
2023/03/09 01:58:39;;;;;;;15.93;7.60;;;;;;;40.61;38.04;100767.72;6128631;23;20823;-84
2023/03/09 02:01:05;;;;;;;13.27;7.07;;;;;;;41.03;37.32;100776.78;6129916;23;20412;-84
2023/03/09 02:03:38;;;;;;;15.17;5.80;;;;;;;41.13;37.28;100775.59;6129924;23;20389;-86
2023/03/09 02:06:15;;;;;;;18.13;7.47;;;;;;;41.17;37.54;100788.22;6129980;23;20451;-87
2023/03/09 02:09:12;;;;;;;16.43;7.50;;;;;;;41.35;37.34;100794.38;6129536;23;20416;-87
2023/03/09 02:11:38;;;;;;;15.00;6.10;;;;;;;41.29;37.28;100782.84;6130041;23;20873;-84
2023/03/09 02:14:05;;;;;;;12.67;6.13;;;;;;;41.32;37.21;100774.06;6155875;23;20455;-81
2023/03/09 02:16:31;;;;;;;14.60;6.67;;;;;;;41.39;37.09;100778.97;6129966;23;20385;-84
2023/03/09 02:18:57;;;;;;;15.97;6.37;;;;;;;41.50;36.55;100784.81;6129672;23;20392;-87
2023/03/09 02:21:37;;;;;;;13.27;5.83;;;;;;;40.71;37.13;100770.88;6129885;23;20387;-88
2023/03/09 02:24:20;;;;;;;16.73;7.27;;;;;;;41.36;36.44;100763.28;6153855;23;20377;-86
2023/03/09 02:26:55;;;;;;;11.43;6.60;;;;;;;41.66;36.06;100761.25;6153869;23;20392;-87
2023/03/09 02:29:21;;;;;;;14.93;6.70;;;;;;;41.70;35.47;100755.97;6129831;23;20381;-84
2023/03/09 02:31:47;;;;;;;18.77;7.27;;;;;;;41.62;35.86;100771.25;6129215;23;20416;-81
2023/03/09 02:34:13;;;;;;;15.67;6.50;;;;;;;40.79;37.84;100759.13;6129768;23;20464;-82
2023/03/09 02:36:39;;;;;;;13.63;6.83;;;;;;;41.59;36.06;100745.47;6129626;23;20381;-81
2023/03/09 02:39:14;;;;;;;11.53;7.00;;;;;;;41.71;36.11;100743.94;6129245;23;20415;-80
2023/03/09 02:41:40;;;;;;;23.47;6.07;;;;;;;41.88;35.66;100753.91;6129539;23;20381;-81
2023/03/09 02:44:07;;;;;;;13.53;6.70;;;;;;;41.57;36.43;100747.75;6129629;23;20452;-79
2023/03/09 02:46:33;;;;;;;16.13;6.03;;;;;;;41.68;35.96;100747.31;6105351;23;20409;-80
2023/03/09 02:48:59;;;;;;;15.80;8.30;;;;;;;41.31;36.59;100739.78;6129579;23;20467;-76
2023/03/09 02:51:25;;;;;;;14.03;7.00;;;;;;;41.42;36.58;100742.09;6155856;23;20420;-76
2023/03/09 02:53:50;;;;;;;17.33;7.77;;;;;;;41.45;36.48;100734.06;6129289;23;20417;-76
2023/03/09 02:56:16;;;;;;;16.97;7.07;;;;;;;41.07;37.16;100743.16;6129708;23;20396;-76
2023/03/09 02:58:42;;;;;;;15.33;6.73;;;;;;;41.56;36.28;100743.44;6129005;23;20440;-77
2023/03/09 03:01:08;;;;;;;12.50;6.93;;;;;;;41.64;36.26;100738.22;6129642;23;20884;-76
2023/03/09 03:03:34;;;;;;;23.60;8.70;;;;;;;41.79;36.14;100741.13;6129313;23;20881;-76
2023/03/09 03:06:01;;;;;;;14.40;8.77;;;;;;;41.52;36.49;100733.53;6129209;23;20409;-74
2023/03/09 03:08:27;;;;;;;11.90;6.50;;;;;;;41.30;36.35;100740.09;6129362;23;20792;-81
2023/03/09 03:10:53;;;;;;;15.00;6.83;;;;;;;41.24;36.72;100741.41;6128802;23;20432;-81
2023/03/09 03:13:19;;;;;;;12.83;6.13;;;;;;;41.50;36.56;100735.81;6128921;23;20389;-80
2023/03/09 03:15:46;;;;;;;12.20;6.13;;;;;;;41.64;36.08;100735.50;6128757;23;20385;-82
2023/03/09 03:18:16;;;;;;;16.13;6.20;;;;;;;41.38;36.73;100733.03;6154566;23;20414;-82
2023/03/09 03:20:45;;;;;;;17.83;7.50;;;;;;;41.20;36.92;100735.06;6155581;23;20357;-81
2023/03/09 03:23:12;;;;;;;16.07;6.93;;;;;;;41.03;37.08;100725.88;6155136;23;20749;-80
2023/03/09 03:25:38;;;;;;;10.63;6.73;;;;;;;41.32;37.03;100726.97;6128902;23;20381;-81
2023/03/09 03:28:04;;;;;;;14.87;6.63;;;;;;;41.56;36.48;100723.56;6128156;23;20443;-76
2023/03/09 03:30:30;;;;;;;9.77;6.00;;;;;;;41.21;36.78;100728.50;6128938;23;20428;-81
2023/03/09 03:32:56;;;;;;;15.23;8.33;;;;;;;41.44;36.70;100728.97;6153590;23;20385;-81
2023/03/09 03:35:22;;;;;;;17.90;6.37;;;;;;;41.53;36.61;100733.19;6128068;23;20406;-81
2023/03/09 03:37:48;;;;;;;11.90;6.23;;;;;;;41.63;35.69;100737.44;6128958;23;20410;-75
2023/03/09 03:40:14;;;;;;;14.10;6.30;;;;;;;41.82;35.74;100737.75;6128953;23;20365;-78
2023/03/09 03:42:40;;;;;;;11.40;5.33;;;;;;;41.64;35.96;100739.03;6128881;23;20373;-77
2023/03/09 03:45:07;;;;;;;14.40;5.70;;;;;;;41.66;35.61;100739.47;6129123;23;20440;-76
2023/03/09 03:47:33;;;;;;;12.93;8.33;;;;;;;41.72;36.03;100735.41;6129124;23;20384;-76
2023/03/09 03:49:59;;;;;;;15.03;6.57;;;;;;;41.08;37.32;100735.78;6129282;23;20429;-76
2023/03/09 03:52:25;;;;;;;13.83;6.53;;;;;;;41.55;36.02;100739.09;6129225;23;20720;-76
2023/03/09 03:54:51;;;;;;;19.47;7.80;;;;;;;41.10;36.77;100744.41;6128854;23;20892;-76
2023/03/09 03:57:17;;;;;;;14.37;6.00;;;;;;;41.26;36.95;100737.25;6129080;23;20715;-78
2023/03/09 03:59:43;;;;;;;11.63;6.43;;;;;;;41.47;36.57;100736.47;6129243;23;20858;-82
2023/03/09 04:02:09;;;;;;;13.73;6.33;;;;;;;41.38;36.97;100733.03;6128498;23;20377;-85
2023/03/09 04:04:35;;;;;;;21.07;7.63;;;;;;;41.23;36.84;100735.19;6128849;23;20377;-86
2023/03/09 04:07:01;;;;;;;24.83;9.00;;;;;;;41.26;36.89;100748.13;6112840;23;20956;-81
2023/03/09 04:09:28;;;;;;;13.53;7.20;;;;;;;40.97;37.26;100750.91;6099342;23;20839;-81
2023/03/09 04:11:53;;;;;;;13.77;6.53;;;;;;;41.22;35.73;100741.75;6099696;23;20394;-80
2023/03/09 04:14:22;;;;;;;18.03;6.60;;;;;;;41.12;35.93;100742.13;6125089;23;20484;-81
2023/03/09 04:16:48;;;;;;;20.77;10.27;;;;;;;41.24;36.38;100747.66;6098867;23;20394;-81
2023/03/09 04:19:15;;;;;;;15.97;8.73;;;;;;;41.21;36.55;100751.06;6099526;23;20401;-81
2023/03/09 04:21:41;;;;;;;14.77;6.80;;;;;;;41.12;36.66;100747.59;6098365;23;20386;-75
2023/03/09 04:24:07;;;;;;;11.67;5.73;;;;;;;41.23;36.05;100748.78;6099357;23;20501;-76
2023/03/09 04:26:33;;;;;;;12.93;7.40;;;;;;;41.02;37.03;100748.00;6099439;23;20446;-76
2023/03/09 04:28:59;;;;;;;14.03;6.20;;;;;;;41.35;35.77;100750.81;6099090;23;20457;-75
2023/03/09 04:31:25;;;;;;;8.73;5.20;;;;;;;40.78;37.01;100751.31;6099222;23;20441;-76
2023/03/09 04:33:51;;;;;;;15.60;5.60;;;;;;;40.91;37.06;100763.09;6099161;23;20473;-76
2023/03/09 04:36:17;;;;;;;18.87;8.47;;;;;;;41.45;36.15;100763.22;6099365;23;20421;-76
2023/03/09 04:38:43;;;;;;;18.27;7.17;;;;;;;41.32;36.43;100765.06;6099295;23;20406;-76
2023/03/09 04:41:11;;;;;;;15.20;6.03;;;;;;;41.41;36.37;100765.00;6099098;23;20461;-76
2023/03/09 04:43:37;;;;;;;13.80;5.70;;;;;;;41.10;36.87;100765.38;6125382;23;20480;-77
2023/03/09 04:46:04;;;;;;;11.73;6.63;;;;;;;40.90;36.72;100761.47;6099220;23;20464;-80
2023/03/09 04:48:30;;;;;;;9.73;6.47;;;;;;;41.03;36.41;100763.97;6099275;23;20394;-80
2023/03/09 04:50:55;;;;;;;16.73;6.60;;;;;;;41.22;36.35;100757.28;6098932;23;20449;-79
2023/03/09 04:53:22;;;;;;;19.10;8.10;;;;;;;41.28;36.43;100769.56;6098768;23;20470;-81
2023/03/09 04:55:48;;;;;;;16.47;6.93;;;;;;;41.36;36.40;100766.00;6098663;23;20490;-81
2023/03/09 04:58:13;;;;;;;18.20;8.90;;;;;;;41.12;36.55;100769.34;6098343;23;20445;-80
2023/03/09 05:00:39;;;;;;;10.77;6.80;;;;;;;41.37;36.45;100758.63;6099079;23;20867;-82
2023/03/09 05:03:05;;;;;;;14.20;7.20;;;;;;;41.39;36.60;100765.34;6099389;23;20740;-80
2023/03/09 05:05:31;;;;;;;13.60;6.43;;;;;;;41.24;36.81;100752.31;6124988;23;20878;-82
2023/03/09 05:07:57;;;;;;;14.13;5.97;;;;;;;40.65;37.78;100753.13;6099035;23;20486;-79
2023/03/09 05:10:23;;;;;;;17.70;7.50;;;;;;;41.23;37.00;100756.94;6098875;23;20436;-78
2023/03/09 05:12:56;;;;;;;13.20;8.17;;;;;;;41.24;36.40;100755.03;6098892;23;20430;-81
2023/03/09 05:15:22;;;;;;;14.17;7.30;;;;;;;40.89;37.71;100759.88;6098596;23;20894;-81
2023/03/09 05:17:49;;;;;;;15.40;8.20;;;;;;;41.20;37.05;100754.13;6098438;23;20389;-82
2023/03/09 05:20:16;;;;;;;13.50;7.43;;;;;;;41.01;37.35;100762.72;6097616;23;20385;-80
2023/03/09 05:22:42;;;;;;;10.03;6.00;;;;;;;40.54;37.67;100766.28;6098866;23;20477;-80
2023/03/09 05:25:10;;;;;;;12.60;7.07;;;;;;;40.62;38.03;100775.53;6125081;23;20429;-81
2023/03/09 05:27:36;;;;;;;14.30;8.33;;;;;;;40.75;37.69;100784.59;6098024;23;20444;-76
2023/03/09 05:30:03;;;;;;;15.13;7.43;;;;;;;40.92;37.07;100773.66;6098602;23;20430;-76
2023/03/09 05:32:29;;;;;;;13.47;6.70;;;;;;;40.66;37.67;100773.75;6099594;23;20827;-76
2023/03/09 05:34:55;;;;;;;17.90;7.63;;;;;;;40.33;37.74;100770.84;6100724;23;20417;-79
2023/03/09 05:37:21;;;;;;;23.90;8.17;;;;;;;40.07;38.17;100767.38;6127116;23;20382;-76
2023/03/09 05:39:48;;;;;;;15.30;7.17;;;;;;;40.38;38.74;100761.69;6100909;23;20390;-76
2023/03/09 05:42:14;;;;;;;17.03;9.20;;;;;;;40.42;37.64;100776.22;6100813;23;20791;-76
2023/03/09 05:44:40;;;;;;;13.87;6.37;;;;;;;40.35;38.47;100775.94;6100838;23;20424;-77
2023/03/09 05:47:06;;;;;;;15.47;6.80;;;;;;;40.50;38.46;100776.22;6101035;23;20386;-80
2023/03/09 05:49:32;;;;;;;14.33;6.20;;;;;;;40.71;37.88;100789.09;6100517;23;20397;-75
2023/03/09 05:51:59;;;;;;;16.50;7.50;;;;;;;40.50;38.03;100797.16;6100825;23;20758;-75
2023/03/09 05:54:25;;;;;;;13.63;7.23;;;;;;;40.40;37.35;100811.09;6100635;23;20392;-80
2023/03/09 05:56:54;;;;;;;13.83;7.17;;;;;;;40.24;38.00;100811.63;6100842;23;20743;-77
2023/03/09 05:59:21;;;;;;;18.30;7.20;;;;;;;40.14;38.38;100811.94;6100507;23;20429;-80
2023/03/09 06:01:47;;;;;;;25.30;8.90;;;;;;;40.06;38.48;100817.41;6100797;23;20742;-81
2023/03/09 06:04:13;;;;;;;15.00;7.43;;;;;;;40.52;38.24;100830.28;6098678;23;20409;-76
2023/03/09 06:06:39;;;;;;;33.53;10.87;;;;;;;40.44;38.44;100841.94;6101929;23;20520;-77
2023/03/09 06:09:05;;;;;;;13.83;7.63;;;;;;;39.97;39.08;100856.22;6099548;23;20421;-76
2023/03/09 06:11:31;;;;;;;13.60;7.60;;;;;;;40.36;38.51;100843.56;6098889;23;20440;-76
2023/03/09 06:13:57;;;;;;;17.90;7.57;;;;;;;40.66;37.88;100846.38;6100348;23;20440;-76
2023/03/09 06:16:24;;;;;;;21.93;9.37;;;;;;;40.45;37.81;100847.03;6099355;23;20906;-75
2023/03/09 06:18:51;;;;;;;11.63;8.40;;;;;;;40.28;37.98;100844.38;6099542;23;20397;-81
2023/03/09 06:21:17;;;;;;;12.33;6.70;;;;;;;40.57;37.82;100849.13;6099667;23;20873;-81
2023/03/09 06:23:43;;;;;;;17.93;7.00;;;;;;;40.40;38.03;100858.13;6099500;23;20402;-78
2023/03/09 06:26:11;;;;;;;14.47;6.90;;;;;;;40.75;37.05;100861.53;6126791;23;20850;-81
2023/03/09 06:28:37;;;;;;;16.10;7.60;;;;;;;40.57;37.70;100862.72;6101352;23;20413;-77
2023/03/09 06:31:13;;;;;;;25.73;7.40;;;;;;;40.81;36.76;100868.38;6100284;23;20422;-78
2023/03/09 06:33:40;;;;;;;17.27;7.53;;;;;;;40.24;38.17;100871.41;6124641;23;20692;-81
2023/03/09 06:36:09;;;;;;;12.70;7.70;;;;;;;40.62;37.53;100870.69;6098257;23;21091;-82
2023/03/09 06:38:35;;;;;;;16.60;7.10;;;;;;;40.68;37.37;100883.00;6098130;23;20389;-81
2023/03/09 06:41:00;;;;;;;12.53;7.33;;;;;;;40.31;37.31;100880.97;6098244;23;20386;-76
2023/03/09 06:43:26;;;;;;;21.07;5.70;;;;;;;40.32;37.33;100883.38;6097895;23;20743;-80
2023/03/09 06:45:53;;;;;;;14.20;7.03;;;;;;;40.34;37.33;100883.06;6097960;23;20521;-85
2023/03/09 06:48:19;;;;;;;14.80;7.13;;;;;;;40.55;37.55;100878.56;6097724;23;20396;-82
2023/03/09 06:50:45;;;;;;;15.07;7.43;;;;;;;40.57;38.49;100886.38;6097372;23;20749;-79
2023/03/09 06:53:12;;;;;;;18.67;8.50;;;;;;;41.22;37.39;100877.03;6099598;23;20465;-82
2023/03/09 06:55:39;;;;;;;19.83;8.40;;;;;;;41.17;37.63;100874.50;6098908;23;20931;-83
2023/03/09 06:58:05;;;;;;;20.47;8.40;;;;;;;40.70;37.86;100883.50;6099821;23;20406;-80
2023/03/09 07:00:31;;;;;;;16.73;6.30;;;;;;;40.55;38.11;100882.06;6099299;23;20389;-80
2023/03/09 07:02:57;;;;;;;20.70;7.80;;;;;;;41.06;37.25;100880.31;6125865;23;20414;-73
2023/03/09 07:05:24;;;;;;;18.50;8.87;;;;;;;40.92;37.62;100884.38;6075997;23;22527;-79
2023/03/09 07:07:50;;;;;;;24.03;8.77;;;;;;;41.10;37.27;100890.56;6102170;23;20961;-80
2023/03/09 07:10:16;;;;;;;17.67;8.43;;;;;;;41.01;37.07;100894.13;6099743;23;20430;-78
2023/03/09 07:12:42;;;;;;;16.97;7.97;;;;;;;40.51;38.02;100885.75;6125251;23;20374;-83
2023/03/09 07:15:09;;;;;;;21.87;8.33;;;;;;;40.11;38.89;100896.84;6126289;23;20358;-80
2023/03/09 07:17:36;;;;;;;14.13;6.63;;;;;;;40.87;37.40;100900.84;6100036;23;20485;-78
2023/03/09 07:20:02;;;;;;;18.27;7.50;;;;;;;40.96;37.34;100910.63;6100039;23;20759;-76
2023/03/09 07:22:28;;;;;;;16.93;7.80;;;;;;;41.27;36.69;100907.59;6099704;23;20870;-76
2023/03/09 07:24:54;;;;;;;14.57;6.83;;;;;;;41.20;36.78;100895.63;6125925;23;20359;-75
2023/03/09 07:27:20;;;;;;;16.83;8.03;;;;;;;40.86;37.21;100901.97;6099862;23;20700;-75
2023/03/09 07:29:46;;;;;;;27.60;7.63;;;;;;;40.97;37.14;100906.78;6125664;23;20894;-76
2023/03/09 07:32:13;;;;;;;17.77;6.63;;;;;;;41.38;36.67;100909.97;6099280;23;20393;-78
2023/03/09 07:34:39;;;;;;;14.10;6.97;;;;;;;41.35;35.74;100916.88;6099322;23;20434;-80
2023/03/09 07:37:05;;;;;;;17.10;5.97;;;;;;;40.94;36.70;100912.06;6099612;23;20854;-75
2023/03/09 07:39:31;;;;;;;18.77;6.37;;;;;;;40.27;38.21;100910.75;6074827;23;20412;-75
2023/03/09 07:41:57;;;;;;;12.20;6.10;;;;;;;40.42;38.36;100912.16;6070671;23;20394;-75
2023/03/09 07:44:23;;;;;;;12.53;6.80;;;;;;;40.18;39.05;100920.81;6096666;23;20367;-75
2023/03/09 07:46:49;;;;;;;24.03;8.87;;;;;;;40.11;39.34;100934.06;6071120;23;20748;-81
2023/03/09 07:49:15;;;;;;;16.13;6.43;;;;;;;40.49;37.86;100948.63;6094784;23;20414;-78
2023/03/09 07:51:42;;;;;;;13.20;6.90;;;;;;;40.60;37.33;100959.19;6070634;23;20422;-81
2023/03/09 07:54:10;;;;;;;13.70;6.50;;;;;;;41.10;37.21;100967.53;6091188;23;20392;-86
2023/03/09 07:56:36;;;;;;;18.70;6.77;;;;;;;40.61;37.98;100974.38;6070667;23;20391;-81
2023/03/09 07:59:02;;;;;;;11.93;5.40;;;;;;;40.58;37.47;100978.53;6069614;23;20493;-76
2023/03/09 08:01:28;;;;;;;11.50;6.20;;;;;;;40.90;37.40;100982.66;6070405;23;20462;-76
2023/03/09 08:03:54;;;;;;;25.03;7.00;;;;;;;40.67;37.85;100983.94;6070780;23;20804;-75
2023/03/09 08:06:20;;;;;;;22.60;6.53;;;;;;;40.89;37.67;100991.91;6094425;23;20391;-75
2023/03/09 08:08:46;;;;;;;15.87;7.57;;;;;;;41.15;37.56;100991.88;6098890;23;20468;-80
2023/03/09 08:11:13;;;;;;;21.90;7.37;;;;;;;41.10;36.95;100989.31;6099466;23;20508;-81
2023/03/09 08:13:39;;;;;;;20.23;6.67;;;;;;;41.60;36.24;100991.38;6075577;23;20393;-82
2023/03/09 08:16:08;;;;;;;15.07;6.27;;;;;;;41.29;36.57;101006.06;6099474;23;20413;-81
2023/03/09 08:18:35;;;;;;;19.47;5.87;;;;;;;41.33;36.59;101004.31;6124052;23;20469;-82
2023/03/09 08:21:22;;;;;;;12.63;6.47;;;;;;;41.06;37.04;101010.91;6098473;23;20429;-83
2023/03/09 08:23:48;;;;;;;15.97;7.07;;;;;;;41.25;36.16;101024.19;6098947;23;20481;-76
2023/03/09 08:26:18;;;;;;;10.80;6.70;;;;;;;41.25;36.30;101028.78;6123962;23;20386;-82
2023/03/09 08:28:48;;;;;;;13.30;6.47;;;;;;;41.14;36.65;101033.81;6124264;23;20715;-82
2023/03/09 08:31:17;;;;;;;17.60;6.13;;;;;;;41.48;36.40;101040.28;6124973;23;20433;-83
2023/03/09 08:33:44;;;;;;;13.13;5.87;;;;;;;41.27;36.33;101053.78;6123837;23;20390;-81
2023/03/09 08:36:15;;;;;;;10.53;6.53;;;;;;;41.45;36.57;101057.28;6123727;23;20879;-81
2023/03/09 08:38:43;;;;;;;16.10;5.60;;;;;;;41.43;36.57;101060.31;6121419;23;20760;-81
2023/03/09 08:41:10;;;;;;;14.07;6.67;;;;;;;41.36;36.91;101064.66;6121650;23;20382;-81
2023/03/09 08:43:36;;;;;;;10.70;6.80;;;;;;;41.49;36.39;101072.63;6121044;23;20465;-81
2023/03/09 08:46:02;;;;;;;14.53;5.90;;;;;;;41.63;36.09;101060.75;6120039;23;20382;-78
2023/03/09 08:48:28;;;;;;;11.97;5.77;;;;;;;41.75;35.87;101055.41;6120968;23;20414;-76
2023/03/09 08:50:54;;;;;;;30.43;8.83;;;;;;;41.81;35.93;101052.19;6121805;23;20803;-80
2023/03/09 08:53:20;;;;;;;11.77;5.50;;;;;;;41.73;36.17;101044.81;6123233;23;20409;-77
2023/03/09 08:55:46;;;;;;;13.27;5.97;;;;;;;41.77;36.17;101056.69;6123440;23;20153;-77
2023/03/09 08:58:12;;;;;;;12.63;6.97;;;;;;;41.92;35.73;101049.06;6122935;23;20393;-78
2023/03/09 09:00:38;;;;;;;11.27;6.17;;;;;;;42.17;35.68;101059.03;6123116;23;20374;-79
2023/03/09 09:03:04;;;;;;;10.60;6.10;;;;;;;42.12;35.67;101048.31;6124778;23;20433;-77
2023/03/09 09:05:30;;;;;;;11.30;5.30;;;;;;;41.46;36.97;101045.25;6123142;23;20406;-83
2023/03/09 09:07:56;;;;;;;11.90;5.90;;;;;;;41.78;36.57;101050.09;6122654;23;21033;-77
2023/03/09 09:10:22;;;;;;;21.83;7.43;;;;;;;41.71;36.65;101055.25;6123278;23;20431;-77
2023/03/09 09:12:48;;;;;;;11.30;7.10;;;;;;;41.30;37.35;101056.66;6122571;23;20394;-78
2023/03/09 09:15:15;;;;;;;11.90;6.83;;;;;;;41.67;36.51;101051.56;6123072;23;20445;-77
2023/03/09 09:17:41;;;;;;;19.80;6.87;;;;;;;41.22;37.17;101057.47;6122975;23;20716;-78
2023/03/09 09:20:08;;;;;;;12.27;5.60;;;;;;;41.91;36.19;101053.72;6124686;23;20442;-77
2023/03/09 09:22:34;;;;;;;19.43;6.60;;;;;;;41.96;36.46;101063.63;6122767;23;20437;-78
2023/03/09 09:25:00;;;;;;;16.33;5.70;;;;;;;41.90;36.43;101054.03;6127728;23;20468;-77
2023/03/09 09:27:27;;;;;;;12.70;5.20;;;;;;;41.65;36.64;101053.81;6128140;23;20408;-77
2023/03/09 09:29:53;;;;;;;22.87;7.63;;;;;;;41.49;37.24;101053.56;6127717;23;20425;-78
2023/03/09 09:32:20;;;;;;;22.30;6.97;;;;;;;41.89;36.36;101047.81;6127868;23;20736;-77
2023/03/09 09:34:46;;;;;;;12.93;7.00;;;;;;;41.53;36.85;101049.06;6154223;23;20393;-77
2023/03/09 09:37:12;;;;;;;18.37;7.33;;;;;;;42.28;35.79;101046.59;6154354;23;20365;-77
2023/03/09 09:39:39;;;;;;;39.47;10.37;;;;;;;42.45;35.58;101044.88;6128028;23;20408;-82
2023/03/09 09:42:24;;;;;;;12.77;5.80;;;;;;;42.06;35.99;101050.44;6128149;23;20393;-81
2023/03/09 09:44:54;;;;;;;16.30;5.50;;;;;;;41.84;36.17;101046.06;6127906;23;20366;-82
2023/03/09 09:47:25;;;;;;;28.10;6.57;;;;;;;41.96;36.11;101052.72;6124798;23;20401;-78
2023/03/09 09:49:55;;;;;;;12.20;5.97;;;;;;;42.22;35.91;101056.09;6127934;23;20424;-78
2023/03/09 09:52:48;;;;;;;15.73;5.97;;;;;;;42.01;36.37;101058.00;6128417;23;20447;-81
2023/03/09 09:55:42;;;;;;;14.03;6.60;;;;;;;42.42;35.92;101064.63;6127314;23;20455;-79
2023/03/09 09:58:29;;;;;;;12.70;6.37;;;;;;;42.31;36.02;101062.31;6127765;23;20420;-78
2023/03/09 10:01:00;;;;;;;15.67;7.50;;;;;;;42.46;39.79;101071.00;6128097;23;20452;-83
2023/03/09 10:03:41;;;;;;;11.93;7.00;;;;;;;42.58;39.39;101069.16;6128480;23;20400;-86
2023/03/09 10:06:20;;;;;;;16.03;8.53;;;;;;;42.61;37.66;101068.53;6127787;23;20389;-81
2023/03/09 10:08:48;;;;;;;13.60;7.33;;;;;;;42.36;36.29;101073.03;6127908;23;20385;-82
2023/03/09 10:11:25;;;;;;;13.37;9.73;;;;;;;42.30;36.33;101068.91;6154256;23;20437;-81
2023/03/09 10:14:27;;;;;;;14.20;7.50;;;;;;;42.29;36.32;101072.72;6129127;23;20734;-86
2023/03/09 10:17:24;;;;;;;18.60;8.43;;;;;;;42.05;36.35;101069.81;6128314;23;20396;-85
2023/03/09 10:19:51;;;;;;;13.03;7.30;;;;;;;41.92;36.17;101068.13;6105630;23;20412;-84
2023/03/09 10:22:27;;;;;;;15.47;8.53;;;;;;;41.81;36.38;101063.06;6129887;23;20447;-82
2023/03/09 10:24:55;;;;;;;12.57;8.73;;;;;;;41.47;37.35;101068.63;6129902;23;20392;-80
2023/03/09 10:27:35;;;;;;;19.00;8.50;;;;;;;41.80;36.57;101072.34;6129519;23;20380;-81
2023/03/09 10:30:11;;;;;;;15.90;8.27;;;;;;;41.84;36.74;101072.50;6128089;23;20913;-81
2023/03/09 10:32:52;;;;;;;13.57;7.87;;;;;;;42.02;36.18;101067.75;6154784;23;20451;-81
2023/03/09 10:35:26;;;;;;;10.07;7.27;;;;;;;42.13;35.83;101058.88;6128355;23;20483;-81
2023/03/09 10:37:52;;;;;;;10.77;7.53;;;;;;;42.23;35.31;101052.25;6128209;23;20385;-81
2023/03/09 10:40:53;;;;;;;17.50;7.80;;;;;;;42.29;35.49;101050.91;6128939;23;20831;-82
2023/03/09 10:43:35;;;;;;;17.43;8.17;;;;;;;42.40;35.47;101051.31;6128153;23;20413;-80
2023/03/09 10:46:20;;;;;;;13.53;7.60;;;;;;;42.14;35.76;101035.94;6128472;23;20385;-81
2023/03/09 10:48:49;;;;;;;13.20;7.60;;;;;;;42.01;35.71;101033.47;6128381;23;20475;-81
2023/03/09 10:51:23;;;;;;;15.40;8.00;;;;;;;41.68;36.11;101036.00;6128184;23;20495;-81
2023/03/09 10:53:51;;;;;;;13.30;7.60;;;;;;;41.67;36.89;101023.53;6128062;23;20444;-82
2023/03/09 10:56:29;;;;;;;14.90;7.70;;;;;;;41.73;36.54;101025.72;6128455;23;20393;-79
2023/03/09 10:59:07;;;;;;;13.40;8.23;;;;;;;41.78;36.57;101009.25;6125748;23;20393;-78
2023/03/09 11:01:38;;;;;;;18.53;8.27;;;;;;;41.72;36.33;101015.97;6126471;23;20480;-78
2023/03/09 11:04:24;;;;;;;14.50;7.00;;;;;;;42.10;36.04;101009.66;6128702;23;20397;-80
2023/03/09 11:06:59;;;;;;;11.40;6.77;;;;;;;42.25;35.70;101009.13;6129195;23;20385;-85
2023/03/09 11:09:31;;;;;;;13.03;7.87;;;;;;;42.28;35.89;101002.97;6128238;23;20385;-77
2023/03/09 11:12:27;;;;;;;11.13;7.07;;;;;;;41.97;35.97;101006.06;6126721;23;20472;-78
2023/03/09 11:15:03;;;;;;;17.37;8.20;;;;;;;42.20;35.77;101009.31;6154133;23;20421;-82
2023/03/09 11:17:42;;;;;;;9.30;6.00;;;;;;;42.11;35.31;100989.44;6128340;23;20432;-77
2023/03/09 11:20:31;;;;;;;12.83;7.23;;;;;;;42.28;35.00;100999.47;6128472;23;20877;-78
2023/03/09 11:23:21;;;;;;;11.10;7.37;;;;;;;42.28;35.01;101000.25;6154009;23;20436;-78